createdAt,value
2019-03-17T00:00:37.224Z,9.47
2019-03-17T00:03:04.727Z,9.45
2019-03-17T00:05:32.355Z,9.47
2019-03-17T00:07:59.882Z,9.46
2019-03-17T00:10:27.090Z,9.49
2019-03-17T00:12:55.909Z,9.53
2019-03-17T00:15:23.988Z,9.47
2019-03-17T00:17:51.535Z,9.55
2019-03-17T00:20:19.939Z,9.61
2019-03-17T00:22:48.073Z,9.56
2019-03-17T00:25:16.453Z,9.57
2019-03-17T00:27:44.016Z,9.54
2019-03-17T00:30:12.091Z,9.57
2019-03-17T00:32:40.964Z,9.55
2019-03-17T00:35:08.859Z,9.54
2019-03-17T00:37:36.597Z,9.55
2019-03-17T00:40:04.822Z,9.52
2019-03-17T00:42:32.940Z,9.60
2019-03-17T00:45:00.834Z,9.55
2019-03-17T00:47:28.324Z,9.54
2019-03-17T00:49:56.146Z,9.51
2019-03-17T00:52:23.566Z,9.54
2019-03-17T00:54:51.571Z,9.52
2019-03-17T00:57:18.765Z,9.54
2019-03-17T00:59:46.365Z,9.54
2019-03-17T01:02:14.103Z,9.54
2019-03-17T01:04:42.198Z,9.53
2019-03-17T01:07:09.852Z,9.61
2019-03-17T01:09:37.716Z,9.60
2019-03-17T01:12:05.720Z,9.49
2019-03-17T01:14:34.108Z,9.48
2019-03-17T01:17:02.218Z,9.50
2019-03-17T01:19:30.114Z,9.43
2019-03-17T01:21:57.405Z,9.49
2019-03-17T01:24:25.397Z,9.47
2019-03-17T01:26:53.271Z,9.41
2019-03-17T01:29:21.421Z,9.43
2019-03-17T01:31:49.107Z,9.34
2019-03-17T01:34:16.756Z,9.33
2019-03-17T01:36:44.655Z,9.36
2019-03-17T01:39:12.688Z,9.32
2019-03-17T01:41:40.527Z,9.29
2019-03-17T01:44:07.735Z,9.27
2019-03-17T01:46:35.629Z,9.23
2019-03-17T01:49:02.977Z,9.16
2019-03-17T01:51:30.858Z,9.19
2019-03-17T01:53:58.538Z,9.17
2019-03-17T01:56:25.844Z,9.23
2019-03-17T01:58:53.258Z,9.21
2019-03-17T02:01:20.815Z,9.12
2019-03-17T02:03:48.585Z,9.08
2019-03-17T02:06:16.324Z,9.14
2019-03-17T02:08:44.327Z,9.14
2019-03-17T02:11:12.201Z,9.16
2019-03-17T02:13:39.481Z,9.17
2019-03-17T02:16:07.333Z,9.19
2019-03-17T02:18:35.174Z,9.16
2019-03-17T02:21:02.642Z,9.26
2019-03-17T02:23:30.424Z,9.16
2019-03-17T02:25:58.142Z,9.09
2019-03-17T02:28:25.713Z,9.10
2019-03-17T02:30:53.366Z,9.10
2019-03-17T02:33:21.038Z,9.15
2019-03-17T02:35:48.637Z,9.13
2019-03-17T02:38:16.211Z,9.02
2019-03-17T02:40:44.112Z,9.03
2019-03-17T02:43:12.363Z,9.08
2019-03-17T02:45:40.268Z,9.05
2019-03-17T02:48:07.842Z,9.02
2019-03-17T02:50:36.227Z,9.08
2019-03-17T02:53:04.690Z,9.01
2019-03-17T02:55:32.769Z,9.13
2019-03-17T02:58:00.572Z,9.09
2019-03-17T03:00:28.098Z,9.04
2019-03-17T03:02:55.999Z,9.16
2019-03-17T03:05:23.450Z,9.15
2019-03-17T03:07:50.859Z,9.07
2019-03-17T03:10:18.962Z,9.06
2019-03-17T03:12:46.650Z,9.11
2019-03-17T03:15:14.602Z,9.09
2019-03-17T03:17:42.407Z,9.15
2019-03-17T03:20:09.778Z,9.09
2019-03-17T03:22:37.587Z,9.16
2019-03-17T03:25:05.541Z,9.15
2019-03-17T03:27:33.189Z,9.12
2019-03-17T03:30:00.968Z,9.25
2019-03-17T03:32:28.655Z,9.21
2019-03-17T03:34:56.549Z,9.15
2019-03-17T03:37:23.974Z,9.16
2019-03-17T03:39:51.363Z,9.21
2019-03-17T03:42:19.192Z,9.15
2019-03-17T03:44:46.372Z,9.15
2019-03-17T03:47:13.749Z,9.16
2019-03-17T03:49:41.088Z,9.20
2019-03-17T03:52:08.530Z,9.16
2019-03-17T03:54:35.844Z,9.18
2019-03-17T03:57:03.323Z,9.22
2019-03-17T03:59:30.914Z,9.21
2019-03-17T04:01:58.335Z,9.15
2019-03-17T04:04:26.165Z,9.14
2019-03-17T04:06:53.958Z,9.14
2019-03-17T04:09:21.916Z,9.09
2019-03-17T04:11:49.589Z,9.08
2019-03-17T04:14:16.877Z,9.06
2019-03-17T04:16:44.309Z,9.02
2019-03-17T04:19:11.834Z,9.05
2019-03-17T04:21:40.106Z,9.02
2019-03-17T04:24:07.590Z,9.01
2019-03-17T04:26:35.771Z,9.06
2019-03-17T04:29:03.138Z,9.09
2019-03-17T04:31:30.405Z,9.06
2019-03-17T04:33:59.326Z,9.11
2019-03-17T04:36:39.591Z,9.09
2019-03-17T04:38:56.153Z,9.07
2019-03-17T04:41:24.128Z,9.09
2019-03-17T04:43:51.745Z,9.06
2019-03-17T04:46:19.312Z,9.06
2019-03-17T04:48:46.981Z,9.08
2019-03-17T04:51:14.582Z,9.09
2019-03-17T04:53:42.173Z,9.03
2019-03-17T04:56:09.686Z,9.06
2019-03-17T04:58:37.290Z,9.01
2019-03-17T05:01:04.913Z,9.07
2019-03-17T05:03:33.023Z,9.01
2019-03-17T05:06:00.706Z,9.11
2019-03-17T05:08:28.472Z,9.04
2019-03-17T05:10:56.498Z,9.10
2019-03-17T05:13:24.384Z,9.15
2019-03-17T05:15:52.297Z,9.18
2019-03-17T05:18:20.168Z,9.14
2019-03-17T05:20:48.146Z,9.12
2019-03-17T05:23:15.707Z,9.23
2019-03-17T05:25:43.511Z,9.22
2019-03-17T05:28:10.947Z,9.32
2019-03-17T05:30:39.125Z,9.39
2019-03-17T05:33:06.521Z,9.40
2019-03-17T05:35:34.020Z,9.47
2019-03-17T05:38:01.556Z,9.47
2019-03-17T05:40:29.508Z,9.55
2019-03-17T05:42:57.212Z,9.66
2019-03-17T05:45:25.089Z,9.67
2019-03-17T05:47:53.784Z,9.73
2019-03-17T05:50:21.391Z,9.69
2019-03-17T05:52:49.769Z,9.82
2019-03-17T05:55:17.208Z,9.81
2019-03-17T05:57:45.284Z,9.95
2019-03-17T06:00:14.204Z,9.89
2019-03-17T06:02:42.284Z,9.96
2019-03-17T06:05:10.187Z,9.96
2019-03-17T06:07:38.312Z,9.99
2019-03-17T06:10:06.126Z,10.09
2019-03-17T06:12:33.532Z,10.13
2019-03-17T06:15:01.626Z,10.19
2019-03-17T06:17:28.984Z,10.19
2019-03-17T06:19:56.935Z,10.29
2019-03-17T06:22:24.854Z,10.37
2019-03-17T06:24:52.163Z,10.38
2019-03-17T06:27:20.039Z,10.46
2019-03-17T06:29:47.662Z,10.59
2019-03-17T06:32:15.530Z,10.62
2019-03-17T06:34:42.956Z,10.59
2019-03-17T06:37:10.483Z,10.62
2019-03-17T06:39:37.889Z,10.62
2019-03-17T06:42:06.101Z,10.77
2019-03-17T06:44:33.514Z,10.75
2019-03-17T06:47:01.271Z,10.87
2019-03-17T06:49:28.993Z,10.86
2019-03-17T06:51:57.383Z,10.88
2019-03-17T06:54:25.291Z,10.91
2019-03-17T06:56:52.573Z,10.88
2019-03-17T06:59:19.843Z,11.04
2019-03-17T07:01:48.303Z,10.92
2019-03-17T07:04:15.594Z,10.95
2019-03-17T07:06:42.998Z,10.89
2019-03-17T07:09:10.704Z,10.96
2019-03-17T07:11:38.515Z,11.05
2019-03-17T07:14:06.159Z,11.00
2019-03-17T07:16:33.780Z,11.09
2019-03-17T07:19:01.918Z,11.15
2019-03-17T07:21:29.042Z,11.27
2019-03-17T07:23:56.786Z,11.63
2019-03-17T07:26:24.255Z,11.69
2019-03-17T07:28:51.786Z,11.79
2019-03-17T07:31:18.966Z,11.86
2019-03-17T07:33:46.404Z,11.91
2019-03-17T07:36:14.220Z,11.97
2019-03-17T07:38:41.968Z,11.97
2019-03-17T07:41:09.706Z,12.16
2019-03-17T07:43:37.141Z,12.23
2019-03-17T07:46:04.875Z,12.16
2019-03-17T07:48:32.602Z,12.06
2019-03-17T07:51:00.307Z,12.10
2019-03-17T07:53:27.952Z,12.21
2019-03-17T07:55:56.087Z,11.97
2019-03-17T07:58:23.472Z,11.91
2019-03-17T08:00:51.060Z,11.97
2019-03-17T08:03:18.720Z,11.96
2019-03-17T08:05:46.944Z,11.82
2019-03-17T08:08:14.362Z,11.76
2019-03-17T08:10:42.097Z,11.80
2019-03-17T08:13:10.540Z,11.64
2019-03-17T08:15:39.205Z,11.73
2019-03-17T08:18:06.512Z,11.88
2019-03-17T08:20:33.953Z,11.64
2019-03-17T08:23:02.312Z,11.63
2019-03-17T08:25:29.582Z,11.76
2019-03-17T08:27:57.184Z,11.85
2019-03-17T08:30:24.590Z,11.98
2019-03-17T08:32:52.141Z,12.46
2019-03-17T08:35:19.904Z,12.45
2019-03-17T08:37:48.009Z,12.88
2019-03-17T08:40:15.572Z,13.08
2019-03-17T08:42:43.292Z,13.49
2019-03-17T08:45:11.229Z,13.85
2019-03-17T08:47:39.065Z,14.22
2019-03-17T08:50:07.064Z,14.43
2019-03-17T08:52:35.098Z,14.13
2019-03-17T08:55:03.260Z,14.46
2019-03-17T08:57:30.721Z,14.62
2019-03-17T08:59:58.014Z,14.78
2019-03-17T09:02:25.652Z,14.76
2019-03-17T09:04:52.849Z,14.86
2019-03-17T09:07:20.537Z,14.99
2019-03-17T09:09:47.851Z,14.68
2019-03-17T09:12:15.243Z,15.11
2019-03-17T09:14:42.926Z,15.06
2019-03-17T09:17:14.678Z,15.28
2019-03-17T09:19:41.136Z,15.25
2019-03-17T09:22:09.204Z,15.59
2019-03-17T09:24:36.474Z,15.73
2019-03-17T09:27:04.742Z,15.84
2019-03-17T09:29:32.301Z,15.98
2019-03-17T09:32:00.443Z,15.65
2019-03-17T09:34:28.358Z,15.89
2019-03-17T09:36:56.106Z,15.96
2019-03-17T09:39:23.829Z,15.93
2019-03-17T09:41:51.794Z,16.03
2019-03-17T09:44:19.718Z,15.83
2019-03-17T09:46:47.447Z,15.66
2019-03-17T09:49:14.887Z,15.58
2019-03-17T09:51:42.468Z,15.54
2019-03-17T09:54:10.560Z,14.86
2019-03-17T09:56:38.036Z,14.68
2019-03-17T09:59:05.854Z,14.68
2019-03-17T10:01:33.892Z,14.82
2019-03-17T10:04:02.329Z,14.33
2019-03-17T10:06:29.582Z,14.44
2019-03-17T10:09:00.234Z,14.24
2019-03-17T10:11:27.471Z,13.97
2019-03-17T10:13:55.340Z,14.29
2019-03-17T10:16:23.041Z,14.32
2019-03-17T10:18:50.787Z,14.22
2019-03-17T10:21:18.786Z,14.44
2019-03-17T10:23:46.990Z,14.60
2019-03-17T10:26:14.563Z,14.67
2019-03-17T10:28:42.467Z,14.66
2019-03-17T10:31:10.448Z,14.71
2019-03-17T10:33:38.337Z,14.81
2019-03-17T10:36:06.006Z,14.80
2019-03-17T10:38:33.833Z,14.63
2019-03-17T10:41:01.955Z,14.45
2019-03-17T10:43:29.372Z,14.24
2019-03-17T10:45:56.771Z,14.16
2019-03-17T10:48:24.260Z,13.95
2019-03-17T10:50:52.031Z,14.08
2019-03-17T10:53:19.332Z,13.99
2019-03-17T10:55:46.853Z,13.47
2019-03-17T10:58:14.155Z,13.30
2019-03-17T11:00:41.474Z,13.34
2019-03-17T11:03:09.206Z,13.41
2019-03-17T11:05:37.248Z,13.35
2019-03-17T11:08:04.975Z,13.10
2019-03-17T11:10:32.411Z,12.90
2019-03-17T11:12:59.826Z,12.62
2019-03-17T11:15:27.649Z,12.73
2019-03-17T11:17:55.525Z,12.76
2019-03-17T11:20:22.993Z,12.55
2019-03-17T11:22:51.115Z,12.56
2019-03-17T11:25:19.045Z,12.30
2019-03-17T11:27:46.652Z,12.30
2019-03-17T11:30:14.377Z,11.87
2019-03-17T11:32:41.865Z,12.02
2019-03-17T11:35:09.431Z,11.74
2019-03-17T11:37:36.821Z,11.65
2019-03-17T11:40:05.654Z,11.66
2019-03-17T11:42:34.003Z,11.40
2019-03-17T11:45:02.053Z,11.49
2019-03-17T11:47:29.654Z,11.03
2019-03-17T11:49:57.085Z,10.59
2019-03-17T11:52:25.527Z,10.72
2019-03-17T11:54:52.948Z,10.62
2019-03-17T11:57:20.813Z,10.52
2019-03-17T11:59:48.206Z,10.41
2019-03-17T12:02:26.129Z,10.28
2019-03-17T12:04:45.921Z,10.15
2019-03-17T12:07:14.073Z,10.26
2019-03-17T12:09:49.876Z,10.01
2019-03-17T12:12:11.790Z,10.04
2019-03-17T12:14:39.206Z,10.02
2019-03-17T12:17:07.735Z,9.99
2019-03-17T12:19:35.413Z,10.03
2019-03-17T12:22:09.103Z,9.98
2019-03-17T12:24:32.639Z,9.92
2019-03-17T12:27:00.820Z,9.72
2019-03-17T12:29:28.392Z,9.78
2019-03-17T12:31:55.837Z,9.68
2019-03-17T12:34:28.024Z,9.77
2019-03-17T12:36:53.022Z,9.66
2019-03-17T12:39:20.710Z,9.59
2019-03-17T12:41:47.871Z,9.47
2019-03-17T12:44:15.430Z,9.34
2019-03-17T12:46:42.607Z,9.41
2019-03-17T12:49:10.164Z,9.33
2019-03-17T12:51:38.024Z,9.24
2019-03-17T12:54:06.124Z,9.24
2019-03-17T12:56:34.381Z,9.18
2019-03-17T12:59:02.281Z,9.15
2019-03-17T13:01:30.366Z,9.09
2019-03-17T13:03:59.046Z,9.15
2019-03-17T13:06:27.002Z,8.93
2019-03-17T13:08:54.281Z,8.87
2019-03-17T13:11:21.680Z,8.91
2019-03-17T13:13:49.104Z,8.97
2019-03-17T13:16:16.985Z,8.96
2019-03-17T13:18:44.415Z,8.84
2019-03-17T13:21:11.568Z,8.89
2019-03-17T13:23:40.537Z,8.90
2019-03-17T13:26:10.346Z,8.88
2019-03-17T13:28:38.127Z,8.83
2019-03-17T13:31:06.162Z,8.89
2019-03-17T13:33:33.456Z,8.79
2019-03-17T13:36:01.008Z,8.85
2019-03-17T13:38:28.551Z,8.55
2019-03-17T13:40:56.111Z,8.47
2019-03-17T13:43:23.769Z,8.46
2019-03-17T13:45:51.444Z,8.38
2019-03-17T13:48:19.530Z,8.33
2019-03-17T13:50:47.322Z,8.13
2019-03-17T13:53:15.676Z,8.11
2019-03-17T13:55:43.204Z,8.32
2019-03-17T13:58:11.317Z,8.35
2019-03-17T14:00:38.869Z,8.39
2019-03-17T14:03:06.498Z,8.38
2019-03-17T14:05:34.681Z,8.27
2019-03-17T14:08:02.422Z,8.36
2019-03-17T14:10:40.275Z,8.26
2019-03-17T14:12:59.497Z,8.26
2019-03-17T14:15:27.356Z,8.12
2019-03-17T14:17:55.839Z,8.19
2019-03-17T14:20:23.509Z,8.52
2019-03-17T14:22:51.640Z,8.52
2019-03-17T14:25:22.459Z,8.54
2019-03-17T14:27:50.036Z,8.84
2019-03-17T14:30:17.859Z,8.57
2019-03-17T14:32:45.326Z,8.69
2019-03-17T14:35:12.805Z,8.64
2019-03-17T14:37:40.532Z,8.73
2019-03-17T14:40:10.139Z,8.68
2019-03-17T14:42:37.655Z,8.45
2019-03-17T14:45:05.602Z,8.73
2019-03-17T14:47:33.165Z,8.60
2019-03-17T14:50:01.147Z,8.85
2019-03-17T14:52:28.690Z,8.80
2019-03-17T14:54:56.643Z,9.12
2019-03-17T14:57:24.588Z,9.05
2019-03-17T14:59:52.630Z,9.19
2019-03-17T15:02:20.202Z,9.32
2019-03-17T15:04:47.483Z,9.15
2019-03-17T15:07:15.635Z,9.29
2019-03-17T15:09:43.510Z,9.42
2019-03-17T15:12:11.889Z,9.40
2019-03-17T15:14:39.872Z,9.53
2019-03-17T15:17:07.796Z,9.61
2019-03-17T15:19:35.202Z,9.69
2019-03-17T15:22:02.866Z,9.68
2019-03-17T15:24:31.255Z,9.61
2019-03-17T15:26:58.646Z,9.69
2019-03-17T15:29:26.773Z,9.49
2019-03-17T15:31:54.563Z,9.29
2019-03-17T15:34:22.439Z,9.41
2019-03-17T15:36:49.844Z,9.36
2019-03-17T15:39:17.667Z,9.30
2019-03-17T15:41:45.593Z,9.38
2019-03-17T15:44:13.341Z,9.55
2019-03-17T15:46:40.777Z,9.61
2019-03-17T15:49:08.706Z,9.64
2019-03-17T15:51:36.346Z,9.57
2019-03-17T15:54:04.695Z,9.64
2019-03-17T15:56:32.515Z,9.51
2019-03-17T15:59:00.342Z,9.58
2019-03-17T16:01:28.320Z,9.60
2019-03-17T16:03:56.087Z,9.76
2019-03-17T16:06:23.632Z,9.99
2019-03-17T16:08:51.173Z,10.07
2019-03-17T16:11:30.098Z,9.89
2019-03-17T16:13:48.224Z,10.04
2019-03-17T16:16:15.611Z,10.12
2019-03-17T16:18:44.137Z,10.08
2019-03-17T16:21:11.954Z,10.23
2019-03-17T16:23:39.674Z,9.94
2019-03-17T16:26:07.326Z,10.09
2019-03-17T16:28:34.828Z,9.79
2019-03-17T16:31:02.886Z,9.85
2019-03-17T16:33:30.555Z,9.98
2019-03-17T16:35:58.096Z,9.81
2019-03-17T16:38:29.405Z,9.62
2019-03-17T16:40:57.752Z,9.24
2019-03-17T16:43:25.725Z,9.16
2019-03-17T16:45:59.203Z,9.11
2019-03-17T16:48:27.586Z,8.99
2019-03-17T16:50:55.481Z,8.76
2019-03-17T16:53:23.414Z,8.66
2019-03-17T16:55:51.433Z,8.65
2019-03-17T16:58:19.307Z,8.69
2019-03-17T17:00:47.601Z,8.69
2019-03-17T17:03:15.499Z,8.36
2019-03-17T17:05:43.412Z,8.44
2019-03-17T17:08:10.998Z,8.22
2019-03-17T17:10:49.792Z,8.32
2019-03-17T17:13:12.336Z,8.36
2019-03-17T17:15:40.314Z,8.29
2019-03-17T17:18:09.862Z,8.26
2019-03-17T17:20:37.827Z,8.18
2019-03-17T17:23:05.368Z,8.14
2019-03-17T17:25:33.145Z,8.12
2019-03-17T17:28:00.741Z,7.99
2019-03-17T17:30:28.604Z,8.02
2019-03-17T17:32:56.115Z,8.02
2019-03-17T17:35:24.142Z,7.97
2019-03-17T17:37:51.541Z,7.90
2019-03-17T17:40:18.864Z,7.77
2019-03-17T17:42:46.534Z,7.85
2019-03-17T17:45:14.852Z,7.72
2019-03-17T17:47:42.275Z,7.76
2019-03-17T17:50:12.169Z,7.66
2019-03-17T17:52:39.873Z,7.65
2019-03-17T17:55:08.144Z,7.71
2019-03-17T17:57:35.551Z,7.69
2019-03-17T18:00:04.753Z,7.61
2019-03-17T18:02:32.686Z,7.63
2019-03-17T18:05:00.659Z,7.67
2019-03-17T18:07:28.602Z,7.64
2019-03-17T18:09:56.361Z,7.61
2019-03-17T18:12:24.483Z,7.63
2019-03-17T18:14:52.096Z,7.62
2019-03-17T18:17:19.819Z,7.59
2019-03-17T18:19:48.516Z,7.53
2019-03-17T18:22:17.199Z,7.47
2019-03-17T18:24:44.822Z,7.43
2019-03-17T18:27:12.527Z,7.42
2019-03-17T18:29:40.919Z,7.45
2019-03-17T18:32:09.078Z,7.53
2019-03-17T18:34:36.658Z,7.51
2019-03-17T18:37:04.719Z,7.53
2019-03-17T18:39:32.966Z,7.42
2019-03-17T18:42:00.753Z,7.31
2019-03-17T18:44:28.840Z,7.22
2019-03-17T18:46:56.484Z,7.23
2019-03-17T18:49:24.613Z,7.10
2019-03-17T18:51:52.108Z,7.14
2019-03-17T18:54:20.259Z,7.05
2019-03-17T18:56:47.882Z,7.08
2019-03-17T18:59:17.810Z,6.90
2019-03-17T19:01:45.741Z,6.91
2019-03-17T19:04:13.396Z,6.91
2019-03-17T19:06:41.569Z,6.90
2019-03-17T19:09:09.956Z,6.82
2019-03-17T19:11:37.649Z,6.82
2019-03-17T19:14:05.646Z,6.76
2019-03-17T19:16:33.366Z,6.72
2019-03-17T19:19:01.413Z,6.74
2019-03-17T19:21:29.005Z,6.71
2019-03-17T19:23:56.646Z,6.64
2019-03-17T19:26:24.949Z,6.70
2019-03-17T19:28:52.371Z,6.71
2019-03-17T19:31:19.776Z,6.76
2019-03-17T19:33:47.199Z,6.76
2019-03-17T19:36:15.173Z,6.65
2019-03-17T19:38:42.892Z,6.64
2019-03-17T19:41:10.632Z,6.61
2019-03-17T19:43:38.059Z,6.60
2019-03-17T19:46:05.937Z,6.61
2019-03-17T19:48:33.454Z,6.65
2019-03-17T19:51:01.281Z,6.56
2019-03-17T19:53:29.174Z,6.69
2019-03-17T19:55:56.664Z,6.79
2019-03-17T19:58:24.732Z,6.70
2019-03-17T20:00:53.178Z,6.53
2019-03-17T20:03:20.476Z,6.69
2019-03-17T20:05:48.520Z,6.71
2019-03-17T20:08:16.555Z,6.65
2019-03-17T20:10:44.097Z,6.56
2019-03-17T20:13:12.262Z,6.48
2019-03-17T20:15:39.909Z,6.32
2019-03-17T20:18:08.223Z,6.22
2019-03-17T20:20:36.006Z,6.06
2019-03-17T20:23:03.946Z,6.09
2019-03-17T20:25:33.349Z,6.20
2019-03-17T20:28:03.654Z,6.17
2019-03-17T20:30:31.446Z,6.10
2019-03-17T20:32:59.405Z,5.99
2019-03-17T20:35:26.833Z,5.88
2019-03-17T20:37:54.266Z,5.90
2019-03-17T20:40:21.432Z,5.78
2019-03-17T20:42:48.979Z,5.77
2019-03-17T20:45:20.059Z,5.80
2019-03-17T20:47:46.655Z,5.64
2019-03-17T20:50:14.760Z,5.77
2019-03-17T20:52:42.380Z,5.74
2019-03-17T20:55:12.968Z,5.66
2019-03-17T20:57:40.814Z,5.74
2019-03-17T21:00:11.422Z,5.73
2019-03-17T21:02:39.080Z,5.71
2019-03-17T21:05:07.147Z,5.66
2019-03-17T21:07:36.620Z,5.68
2019-03-17T21:10:09.557Z,5.58
2019-03-17T21:12:37.336Z,5.61
2019-03-17T21:15:06.594Z,5.64
2019-03-17T21:17:34.096Z,5.66
2019-03-17T21:20:01.994Z,5.62
2019-03-17T21:22:30.558Z,5.57
2019-03-17T21:24:58.700Z,5.53
2019-03-17T21:27:29.641Z,5.50
2019-03-17T21:29:57.339Z,5.45
2019-03-17T21:32:26.093Z,5.45
2019-03-17T21:34:54.393Z,5.39
2019-03-17T21:37:22.205Z,5.40
2019-03-17T21:39:50.015Z,5.30
2019-03-17T21:42:19.023Z,5.27
2019-03-17T21:44:59.760Z,5.27
2019-03-17T21:47:27.958Z,5.04
2019-03-17T21:49:57.233Z,4.92
2019-03-17T21:52:24.514Z,4.96
2019-03-17T21:54:52.102Z,4.81
2019-03-17T21:57:20.676Z,4.86
2019-03-17T21:59:48.307Z,4.73
2019-03-17T22:02:16.521Z,4.77
2019-03-17T22:04:44.008Z,4.62
2019-03-17T22:07:12.489Z,4.29
2019-03-17T22:09:39.905Z,4.28
2019-03-17T22:12:07.358Z,4.34
2019-03-17T22:14:35.533Z,4.33
2019-03-17T22:17:03.537Z,4.12
2019-03-17T22:19:31.367Z,4.18
2019-03-17T22:22:01.735Z,4.15
2019-03-17T22:24:30.173Z,4.15
2019-03-17T22:26:57.966Z,3.99
2019-03-17T22:29:25.358Z,3.99
2019-03-17T22:31:52.864Z,3.99
2019-03-17T22:34:20.418Z,3.92
2019-03-17T22:36:48.245Z,3.88
2019-03-17T22:39:15.981Z,3.89
2019-03-17T22:41:43.465Z,3.82
2019-03-17T22:44:23.581Z,3.81
2019-03-17T22:46:40.884Z,3.64
2019-03-17T22:49:08.172Z,3.68
2019-03-17T22:51:35.736Z,3.65
2019-03-17T22:54:03.571Z,3.67
2019-03-17T22:56:30.886Z,3.68
2019-03-17T22:58:58.677Z,3.66
2019-03-17T23:01:26.581Z,3.54
2019-03-17T23:03:54.258Z,3.56
2019-03-17T23:06:22.231Z,3.48
2019-03-17T23:08:50.257Z,3.48
2019-03-17T23:11:18.285Z,3.49
2019-03-17T23:13:45.976Z,3.28
2019-03-17T23:16:14.389Z,3.26
2019-03-17T23:18:42.111Z,3.23
2019-03-17T23:21:10.437Z,3.22
2019-03-17T23:23:39.463Z,3.15
2019-03-17T23:26:07.046Z,3.03
2019-03-17T23:28:34.291Z,3.10
2019-03-17T23:31:01.843Z,2.99
2019-03-17T23:33:29.444Z,2.90
2019-03-17T23:35:57.194Z,2.84
2019-03-17T23:38:25.403Z,2.77
2019-03-17T23:40:53.566Z,2.73
2019-03-17T23:43:20.814Z,2.73
2019-03-17T23:45:48.877Z,2.68
2019-03-17T23:48:16.139Z,2.73
2019-03-17T23:50:43.393Z,2.74
2019-03-17T23:53:11.450Z,2.77
2019-03-17T23:55:39.123Z,2.78
2019-03-17T23:58:07.497Z,2.80
